• Join FlightAware (Why Join?)
  • Login
  • US Flag 
09:07AM EST


 

Airport Tracker/Info


-or-


 

Live Flight TrackerFlight Track Log ✈ CAL220 ✈ 16-Nov-2013 ✈ RCSS / TSA - RJTT / HND

Flight Track Log - Related Links

Times and Time Zones

All times are in EST time to prevent confusion due to time zone crossing. See the CAL220 flight status page for this flight to view local times or setup timezone preferences in your user account.

Time Position Orientation Groundspeed Altitude Reporting Facility
EST Latitude Longitude Course Direction KTS MPH feet Rate Location/Type
08:08PM 25.0650 121.5930 103° East 153 176 1,700  Level FlightAware
08:08PM 25.0610 121.6140 102° East 153 176 2,600 1,560 Climbing FlightAware
08:09PM 25.0570 121.6470 98° East 177 204 3,500 1,020 Climbing FlightAware
08:09PM 25.0540 121.6810 96° East 228 262 3,900 720 Climbing FlightAware
08:09PM 25.0530 121.6890 98° East 238 274 4,000 2,100 Climbing FlightAware
08:10PM 25.0850 121.7410 56° Northeast 278 320 5,800 2,400 Climbing FlightAware
08:11PM 25.1020 121.7590 44° Northeast 292 336 6,600 2,820 Climbing FlightAware
08:11PM 25.1370 121.7990 46° Northeast 302 348 8,400 2,640 Climbing FlightAware
08:12PM 25.1570 121.8250 50° Northeast 317 365 9,200 2,400 Climbing FlightAware
08:12PM 25.1830 121.8640 54° Northeast 334 384 10,400 2,160 Climbing FlightAware
08:13PM 25.2390 121.9480 54° Northeast 378 435 12,300 2,160 Climbing FlightAware
08:13PM 25.2600 121.9970 65° Northeast 390 449 13,500 2,400 Climbing FlightAware
08:14PM 25.3000 122.1020 67° East 408 470 15,700 2,220 Climbing FlightAware
08:15PM 25.3340 122.2000 69° East 425 489 17,400 2,040 Climbing FlightAware
08:16PM 25.3750 122.3130 68° East 441 507 19,300 2,160 Climbing FlightAware
08:17PM 25.4280 122.4270 63° Northeast 447 514 21,400 1,920 Climbing FlightAware
08:18PM 25.4880 122.5390 59° Northeast 464 534 22,900 1,680 Climbing FlightAware
08:19PM 25.5420 122.6430 60° Northeast 471 542 24,400 1,620 Climbing FlightAware
08:20PM 25.5930 122.7430 60° Northeast 481 554 25,600 1,320 Climbing FlightAware
08:20PM 25.6200 122.7940 60° Northeast 487 560 26,000 1,320 Climbing FlightAware
08:21PM 25.6820 122.9080 59° Northeast 497 572 27,300 1,380 Climbing FlightAware
08:22PM 25.7440 123.0230 59° Northeast 503 579 28,500 1,320 Climbing FlightAware
08:22PM 25.7820 123.0950 60° Northeast 507 583 29,200 1,260 Climbing FlightAware
08:23PM 25.8590 123.2380 59° Northeast 516 594 30,500 1,200 Climbing FlightAware
08:24PM 25.9180 123.3280 54° Northeast 517 595 31,300 1,140 Climbing FlightAware
08:25PM 26.0080 123.4540 52° Northeast 520 598 32,500 1,140 Climbing FlightAware
08:25PM 26.0430 123.5030 52° Northeast 520 598 32,900 1,140 Climbing FlightAware
08:26PM 26.1400 123.6390 52° Northeast 519 597 34,200 1,200 Climbing FlightAware
08:27PM 26.1820 123.6970 51° Northeast 517 595 34,800 1,260 Climbing FlightAware
08:28PM 26.2410 123.7830 53° Northeast 513 590 35,700 1,140 Climbing FlightAware
08:28PM 26.3110 123.8840 52° Northeast 511 588 36,500 840 Climbing FlightAware
08:29PM 26.3740 123.9620 48° Northeast 497 572 37,000 720 Climbing FlightAware
08:30PM 26.4180 124.0060 42° Northeast 499 574 37,300 780 Climbing FlightAware
08:30PM 26.5170 124.1050 42° Northeast 496 571 38,100 840 Climbing FlightAware
08:31PM 26.6030 124.1920 42° Northeast 490 564 38,900 540 Climbing FlightAware
08:32PM 26.6680 124.2570 42° Northeast 490 564 39,000 60 Climbing FlightAware
08:33PM 26.7370 124.3270 42° Northeast 490 564 39,000  Level FlightAware
08:33PM 26.7740 124.3640 42° Northeast 503 579 39,000  Level FlightAware
08:34PM 26.8700 124.4610 42° Northeast 503 579 39,000  Level FlightAware
08:35PM 26.9050 124.4960 42° Northeast 503 579 39,000  Level FlightAware
08:36PM 26.9950 124.5870 42° Northeast 503 579 39,000  Level FlightAware
08:36PM 27.0480 124.6400 42° Northeast 503 579 39,000  Level FlightAware
08:38PM 27.2180 124.8140 42° Northeast 515 593 39,000  Level FlightAware
08:38PM 27.2530 124.8510 43° Northeast 516 594 39,000  Level FlightAware
08:39PM 27.3790 124.9790 42° Northeast 515 593 39,000  Level FlightAware
08:40PM 27.4150 125.0150 42° Northeast 515 593 39,000  Level FlightAware
08:41PM 27.5050 125.1070 42° Northeast 515 593 39,000  Level FlightAware
08:42PM 27.6330 125.3160 55° Northeast 523 602 39,000  Level FlightAware
08:43PM 27.7270 125.4440 50° Northeast 526 605 39,000  Level FlightAware
08:43PM 27.7870 125.5260 50° Northeast 526 605 39,000  Level FlightAware
08:44PM 27.8790 125.6520 50° Northeast 529 609 39,000  Level FlightAware
08:45PM 27.9660 125.7710 50° Northeast 529 609 39,000  Level FlightAware
08:46PM 28.0370 125.8670 50° Northeast 527 606 39,000  Level FlightAware
08:47PM 28.1350 126.0030 51° Northeast 530 610 39,000  Level FlightAware
08:48PM 28.2410 126.1490 50° Northeast 533 613 39,000  Level FlightAware
08:49PM 28.3390 126.2850 51° Northeast 534 615 39,000  Level FlightAware
08:50PM 28.3660 126.3220 50° Northeast 534 615 39,000  Level FlightAware
08:50PM 28.4210 126.3980 51° Northeast 535 616 39,000  Level FlightAware
08:52PM 28.6200 126.6760 51° Northeast 538 619 39,000  Level FlightAware
08:53PM 28.6810 126.7620 51° Northeast 540 621 39,000  Level FlightAware
08:54PM 28.7490 126.8580 51° Northeast 540 621 39,000  Level FlightAware
08:55PM 28.8550 127.0070 51° Northeast 541 623 39,000  Level FlightAware
08:55PM 28.9350 127.1190 51° Northeast 541 623 39,000  Level FlightAware
08:56PM 28.9830 127.1870 51° Northeast 541 623 39,000  Level FlightAware
08:57PM 29.0770 127.3210 51° Northeast 544 626 39,000  Level FlightAware
08:58PM 29.1440 127.4160 51° Northeast 544 626 39,000  Level FlightAware
08:59PM 29.2360 127.5470 51° Northeast 546 628 39,000  Level FlightAware
09:00PM 29.3400 127.6960 51° Northeast 547 629 39,000  Level FlightAware
09:00PM 29.3920 127.7690 51° Northeast 547 629 39,000  Level FlightAware
09:01PM 29.4380 127.8340 51° Northeast 547 629 39,000  Level FlightAware
09:02PM 29.5160 127.9460 51° Northeast 547 629 39,000  Level FlightAware
09:03PM 29.5830 128.0400 51° Northeast 547 629 39,000  Level FlightAware
09:04PM 29.6480 128.1320 51° Northeast 547 629 39,000  Level FlightAware
09:04PM 29.7130 128.2250 51° Northeast 547 629 39,000  Level FlightAware
09:05PM 29.7940 128.3400 51° Northeast 547 629 39,000  Level FlightAware
09:08PM 29.9542 128.6158 56° Northeast  Level Estimated
09:09PM 30.0274 128.7424 56° Northeast  Level Estimated
09:10PM 30.1004 128.8692 56° Northeast  Level Estimated
09:11PM 30.1733 128.9962 56° Northeast  Level Estimated
09:12PM 30.2462 129.1234 56° Northeast  Level Estimated
09:13PM 30.3188 129.2508 57° Northeast  Level Estimated
09:14PM 30.3914 129.3783 57° Northeast  Level Estimated
09:15PM 30.4639 129.5061 57° Northeast  Level Estimated
09:16PM 30.5362 129.6340 57° Northeast  Level Estimated
09:17PM 30.6084 129.7621 57° Northeast  Level Estimated
09:18PM 30.6804 129.8905 57° Northeast  Level Estimated
09:18PM 31.0360 130.2770 57° Northeast 575 662 39,000  Level FlightAware
09:19PM 31.1000 130.3970 58° Northeast 575 662 39,000  Level FlightAware
09:19PM 31.1800 130.5510 59° Northeast 575 662 39,000  Level FlightAware
09:20PM 31.2490 130.6820 58° Northeast 577 664 39,000  Level FlightAware
09:21PM 31.3220 130.8210 58° Northeast 577 664 39,000  Level FlightAware
09:22PM 31.4070 130.9850 59° Northeast 576 663 39,000  Level FlightAware
09:23PM 31.4890 131.1440 59° Northeast 573 659 39,000  Level FlightAware
09:24PM 31.5580 131.2770 59° Northeast 574 661 39,000  Level FlightAware
09:25PM 31.6070 131.3720 59° Northeast 576 663 39,000  Level FlightAware
09:26PM 31.6770 131.5100 59° Northeast 572 658 39,000  Level FlightAware
09:26PM 31.7310 131.6150 59° Northeast 573 659 39,000  Level FlightAware
09:27PM 31.8050 131.7610 59° Northeast 579 666 39,000  Level FlightAware
09:28PM 31.8410 131.8330 60° Northeast 579 666 39,000  Level FlightAware
09:29PM 31.9270 132.0010 59° Northeast 577 664 39,000  Level FlightAware
09:29PM 31.9680 132.0840 60° Northeast 576 663 39,000  Level FlightAware
09:30PM 32.0500 132.2460 59° Northeast 576 663 39,000  Level FlightAware
09:31PM 32.1050 132.3560 59° Northeast 578 665 39,000  Level FlightAware
09:32PM 32.1670 132.4980 63° Northeast 585 673 39,000  Level FlightAware
09:32PM 32.1860 132.5410 62° Northeast 585 673 39,000  Level FlightAware
09:33PM 32.2400 132.6680 63° Northeast 587 676 39,000  Level FlightAware
09:34PM 32.3180 132.8540 64° Northeast 589 678 39,000  Level FlightAware
09:34PM 32.3710 132.9880 65° Northeast 590 679 39,000  Level FlightAware
09:35PM 32.4330 133.1430 65° Northeast 584 672 39,000  Level FlightAware
09:36PM 32.4590 133.2100 65° Northeast 584 672 39,000  Level FlightAware
09:37PM 32.5280 133.3840 65° Northeast 584 672 39,000  Level FlightAware
09:37PM 32.5760 133.5040 65° Northeast 586 674 39,000  Level FlightAware
09:38PM 32.6510 133.6970 65° Northeast 587 676 39,000  Level FlightAware
09:39PM 32.7180 133.8680 65° Northeast 588 677 39,000  Level FlightAware
09:40PM 32.7760 134.0160 65° Northeast 587 676 39,000  Level FlightAware
09:41PM 32.8330 134.1650 65° Northeast 588 677 39,000  Level FlightAware
09:42PM 32.8700 134.2590 65° Northeast 589 678 39,000  Level FlightAware
09:42PM 32.9200 134.3910 66° East 592 681 39,000  Level FlightAware
09:43PM 32.9870 134.5660 65° Northeast 594 684 39,000  Level FlightAware
09:44PM 33.0460 134.7200 65° Northeast 595 685 39,000  Level FlightAware
09:45PM 33.0800 134.8100 66° East 596 686 39,000  Level FlightAware
09:46PM 33.1530 135.0020 66° East 594 684 39,000  Level FlightAware
09:47PM 33.2090 135.1520 66° East 593 682 39,000  Level FlightAware
09:48PM 33.2690 135.3130 66° East 591 680 39,000  Level FlightAware
09:48PM 33.3030 135.4040 66° East 591 680 39,000  Level FlightAware
09:49PM 33.3650 135.5710 66° East 590 679 39,000  Level FlightAware
09:49PM 33.3910 135.6410 66° East 589 678 39,000  Level FlightAware
09:50PM 33.4550 135.8250 67° East 593 682 39,000  Level FlightAware
09:51PM 33.4770 135.9040 72° East 595 685 39,000  Level FlightAware
09:52PM 33.5230 136.0770 72° East 595 685 39,000  Level FlightAware
09:53PM 33.5640 136.2310 72° East 591 680 39,000  Level FlightAware
09:53PM 33.5880 136.3220 72° East 589 678 39,000  Level FlightAware
09:54PM 33.6140 136.4180 72° East 587 676 39,000  Level FlightAware
09:54PM 33.6500 136.5560 73° East 585 673 39,000  Level FlightAware
09:55PM 33.6880 136.7040 73° East 584 672 39,000  Level FlightAware
09:56PM 33.7270 136.8510 72° East 584 672 39,000  Level FlightAware
09:57PM 33.7590 136.9750 73° East 582 670 39,000  Level FlightAware
09:57PM 33.7980 137.1260 73° East 582 670 39,000  Level FlightAware
09:58PM 33.8510 137.3280 72° East 574 661 39,000  Level FlightAware
09:59PM 33.8990 137.4580 66° East 569 655 39,000 -300 Level FlightAware
10:00PM 33.9530 137.6040 66° East 564 649 38,600 -900 Descending FlightAware
10:01PM 34.0160 137.7750 66° East 561 646 37,400 -1,560 Descending FlightAware
10:02PM 34.0480 137.8620 66° East 561 646 36,300 -2,160 Descending FlightAware
10:02PM 34.0990 138.0010 66° East 559 643 34,600 -2,160 Descending FlightAware
10:03PM 34.1370 138.1040 66° East 556 640 33,300 -1,980 Descending FlightAware
10:04PM 34.1870 138.2400 66° East 561 646 31,800 -1,800 Descending FlightAware
10:05PM 34.2480 138.4080 66° East 566 651 30,100 -1,860 Descending FlightAware
10:06PM 34.2960 138.5410 66° East 549 632 28,600 -1,740 Descending FlightAware
10:06PM 34.3500 138.6930 67° East 533 613 27,200 -1,680 Descending FlightAware
10:07PM 34.3810 138.7800 67° East 521 600 26,300 -1,620 Descending FlightAware
10:08PM 34.4280 138.9100 66° East 527 606 25,100 -780 Descending FlightAware
10:09PM 34.4750 139.0420 67° East 525 604 25,000 -840 Descending FlightAware
10:09PM 34.5130 139.1490 67° East 507 583 23,900 -2,520 Descending FlightAware
10:10PM 34.5520 139.2610 67° East 467 537 21,600 -2,640 Descending FlightAware
10:11PM 34.5820 139.3460 67° East 436 502 20,200 -2,220 Descending FlightAware
10:12PM 34.6350 139.4670 62° Northeast 368 423 17,900 -2,220 Descending FlightAware
10:13PM 34.6970 139.5730 55° Northeast 338 389 15,600 -1,980 Descending FlightAware
10:13PM 34.7250 139.6000 38° Northeast 327 376 15,100 -1,560 Descending FlightAware
10:14PM 34.7600 139.6290 34° Northeast 326 375 14,300 -1,980 Descending FlightAware
10:14PM 34.7980 139.6400 13° North 314 361 13,300 -2,280 Descending FlightAware
10:15PM 34.8710 139.6590 12° North 296 341 11,300 -2,280 Descending FlightAware
10:16PM 34.9240 139.6730 12° North 283 326 9,900 -2,160 Descending FlightAware
10:16PM 34.9590 139.6820 12° North 284 327 9,000 -1,620 Descending FlightAware
10:17PM 35.0040 139.6950 13° North 268 308 8,200 -1,260 Descending FlightAware
10:17PM 35.0250 139.7000 11° North 267 307 7,900 -1,140 Descending FlightAware
10:17PM 35.0600 139.7090 12° North 264 304 7,300 -1,260 Descending FlightAware
10:18PM 35.0960 139.7190 13° North 268 308 6,700 -840 Descending FlightAware
10:18PM 35.1400 139.7310 13° North 248 285 6,400 -540 Descending FlightAware
10:19PM 35.1680 139.7390 13° North 234 269 6,200 -720 Descending FlightAware
10:19PM 35.1990 139.7470 12° North 219 252 5,800 -840 Descending FlightAware
10:20PM 35.2200 139.7520 11° North 218 251 5,500 -660 Descending FlightAware
10:20PM 35.2530 139.7620 14° North 198 228 5,200 -540 Descending FlightAware
10:21PM 35.2740 139.7670 11° North 186 214 5,000 -660 Descending FlightAware
10:21PM 35.3030 139.7750 13° North 186 214 4,600 -660 Descending FlightAware
10:22PM 35.3340 139.7920 24° Northeast 179 206 4,200 -840 Descending FlightAware
10:22PM 35.3500 139.8050 34° Northeast 179 206 3,800 -1,020 Descending FlightAware
10:23PM 35.3680 139.8190 32° Northeast 177 204 3,400 -1,020 Descending FlightAware
10:23PM 35.3870 139.8340 33° Northeast 157 181 2,900 -960 Descending FlightAware
10:24PM 35.4020 139.8450 31° Northeast 150 173 2,600 -600 Descending FlightAware
10:24PM 35.4110 139.8510 29° Northeast 154 177 2,500 -540 Descending FlightAware
10:24PM 35.4270 139.8520 North 147 169 2,300 -600 Descending FlightAware
10:25PM 35.4440 139.8500 355° North 150 173 2,100 -780 Descending FlightAware
10:25PM 35.4650 139.8370 333° Northwest 148 170 1,600 -840 Descending FlightAware
10:26PM 35.4790 139.8260 327° Northwest 136 157 1,300 -720 Descending FlightAware
10:26PM 35.4940 139.8160 332° Northwest 133 153 1,000 -780 Descending FlightAware
10:26PM 35.5070 139.8070 331° Northwest 134 154 700 -780 Descending FlightAware
10:27PM 35.5240 139.7950 330° Northwest 132 152 300 -840 Descending FlightAware
10:27PM 35.5320 139.7890 329° Northwest 134 154 100 -300 Descending FlightAware
10:28PM 35.5430 139.7800 326° Northwest 134 154 100  Level FlightAware
10:30PM 35.5523 139.7797 358° North  Level Estimated
10:31PM 35.5523 139.7797 122° Southeast  Level Estimated
10:32PM 35.5523 139.7797 122° Southeast  Level Estimated
10:33PM 35.5523 139.7797 122° Southeast  Level Estimated
10:34PM 35.5523 139.7797 122° Southeast  Level Estimated
10:35PM 35.5523 139.7797 122° Southeast  Level Estimated
10:36PM 35.5523 139.7797 122° Southeast  Level Estimated
10:37PM 35.5523 139.7797 122° Southeast  Level Estimated
10:38PM 35.5523 139.7797 122° Southeast  Level Estimated
10:39PM 35.5523 139.7797 122° Southeast  Level Estimated
10:40PM 35.5523 139.7797 122° Southeast  Level Estimated
10:41PM 35.5523 139.7797 122° Southeast  Level Estimated
10:42PM 35.5523 139.7797 122° Southeast  Level Estimated
10:43PM 35.5523 139.7797 122° Southeast  Level Estimated
10:44PM 35.5523 139.7797 122° Southeast  Level Estimated
10:45PM 35.5523 139.7797 122° Southeast  Level Estimated
10:46PM 35.5523 139.7797 122° Southeast  Level Estimated